Terminal Aerodrome Forecast
Issued by NWS

Home | Current Version | Previous Version | Text Only | Print | Product List | Glossary On
Versions: 1 2 3 4 5 6 7 8 9 10 11 12 13 14
268
FTUS42 KILM 140520
TAFCRE
TAF
KCRE 140520Z 1406/1506 03006KT P6SM SKC
     FM141400 04011KT P6SM SCT120 SCT250
     FM142000 09008KT P6SM SCT050 BKN200
     FM150400 06007KT P6SM BKN050 OVC100=

USA.gov is the U.S. government's official web portal to all federal, state and local government web resources and services.